createdAt,value
2018-08-25T00:00:26.337Z,15.10
2018-08-25T00:02:54.873Z,15.10
2018-08-25T00:05:23.515Z,15.10
2018-08-25T00:07:52.103Z,15.10
2018-08-25T00:10:20.696Z,15.10
2018-08-25T00:12:49.276Z,15.10
2018-08-25T00:15:17.855Z,15.10
2018-08-25T00:17:46.512Z,15.20
2018-08-25T00:20:15.096Z,15.10
2018-08-25T00:22:43.647Z,15.10
2018-08-25T00:25:12.208Z,15.10
2018-08-25T00:27:40.740Z,15.10
2018-08-25T00:31:12.019Z,15.10
2018-08-25T00:33:40.562Z,15.10
2018-08-25T00:36:09.137Z,15.00
2018-08-25T00:38:37.707Z,15.10
2018-08-25T00:41:06.313Z,15.10
2018-08-25T00:43:34.918Z,15.10
2018-08-25T00:46:03.497Z,15.10
2018-08-25T00:48:32.075Z,15.10
2018-08-25T00:51:00.623Z,15.10
2018-08-25T00:53:29.233Z,15.00
2018-08-25T00:55:57.794Z,15.00
2018-08-25T00:58:26.353Z,15.00
2018-08-25T01:00:54.985Z,15.00
2018-08-25T01:03:23.548Z,15.00
2018-08-25T01:05:52.103Z,15.00
2018-08-25T01:08:20.657Z,14.90
2018-08-25T01:10:49.237Z,14.90
2018-08-25T01:13:17.786Z,15.00
2018-08-25T01:15:46.355Z,15.00
2018-08-25T01:18:14.908Z,14.90
2018-08-25T01:20:43.513Z,14.90
2018-08-25T01:23:12.061Z,14.80
2018-08-25T01:25:40.615Z,14.70
2018-08-25T01:28:09.239Z,14.70
2018-08-25T01:30:37.826Z,14.70
2018-08-25T01:33:06.416Z,14.70
2018-08-25T01:35:35.036Z,14.70
2018-08-25T01:38:03.611Z,14.70
2018-08-25T01:40:32.249Z,14.60
2018-08-25T01:43:00.825Z,14.60
2018-08-25T01:45:29.429Z,14.60
2018-08-25T01:47:57.959Z,14.60
2018-08-25T01:50:26.547Z,14.50
2018-08-25T01:52:55.135Z,14.50
2018-08-25T01:55:23.752Z,14.50
2018-08-25T01:57:52.308Z,14.50
2018-08-25T02:00:20.855Z,14.40
2018-08-25T02:02:49.617Z,14.40
2018-08-25T02:05:18.099Z,14.40
2018-08-25T02:07:46.656Z,14.30
2018-08-25T02:10:15.267Z,14.30
2018-08-25T02:12:43.789Z,14.30
2018-08-25T02:15:12.344Z,14.20
2018-08-25T02:17:40.922Z,14.20
2018-08-25T02:20:09.487Z,14.20
2018-08-25T02:22:38.017Z,14.10
2018-08-25T02:25:06.588Z,14.20
2018-08-25T02:27:35.142Z,14.20
2018-08-25T02:30:03.787Z,14.20
2018-08-25T02:32:32.433Z,14.20
2018-08-25T02:35:01.011Z,14.20
2018-08-25T02:37:29.580Z,14.20
2018-08-25T02:39:58.144Z,14.20
2018-08-25T02:42:26.732Z,14.10
2018-08-25T02:44:55.255Z,14.10
2018-08-25T02:47:23.847Z,14.10
2018-08-25T02:49:52.396Z,14.00
2018-08-25T02:52:20.993Z,14.00
2018-08-25T02:54:49.561Z,13.90
2018-08-25T02:57:18.151Z,13.90
2018-08-25T02:59:46.710Z,13.80
2018-08-25T03:02:15.235Z,13.80
2018-08-25T03:04:43.804Z,13.80
2018-08-25T03:07:12.730Z,13.70
2018-08-25T03:09:41.255Z,13.70
2018-08-25T03:12:09.812Z,13.60
2018-08-25T03:14:38.374Z,13.50
2018-08-25T03:17:06.965Z,13.50
2018-08-25T03:19:35.576Z,13.50
2018-08-25T03:22:04.135Z,13.50
2018-08-25T03:24:32.741Z,13.40
2018-08-25T03:27:01.383Z,13.30
2018-08-25T03:29:29.908Z,13.30
2018-08-25T03:31:58.420Z,13.30
2018-08-25T03:34:26.996Z,13.30
2018-08-25T03:36:55.521Z,13.30
2018-08-25T03:39:24.094Z,13.30
2018-08-25T03:41:52.677Z,13.30
2018-08-25T03:44:21.232Z,13.30
2018-08-25T03:46:49.794Z,13.30
2018-08-25T03:49:18.351Z,13.30
2018-08-25T03:51:46.869Z,13.30
2018-08-25T03:54:15.430Z,13.30
2018-08-25T03:56:43.971Z,13.30
2018-08-25T03:59:12.618Z,13.30
2018-08-25T04:01:41.267Z,13.30
2018-08-25T04:04:09.745Z,13.20
2018-08-25T04:06:38.319Z,13.20
2018-08-25T04:09:10.165Z,13.20
2018-08-25T04:11:38.740Z,13.20
2018-08-25T04:14:08.186Z,13.20
2018-08-25T04:16:36.915Z,13.20
2018-08-25T04:19:05.845Z,13.20
2018-08-25T04:21:34.385Z,13.20
2018-08-25T04:24:02.991Z,13.30
2018-08-25T04:26:31.592Z,13.30
2018-08-25T04:29:00.148Z,13.30
2018-08-25T04:31:28.672Z,13.30
2018-08-25T04:33:57.184Z,13.30
2018-08-25T04:36:25.724Z,13.30
2018-08-25T04:38:54.268Z,13.30
2018-08-25T04:41:23.093Z,13.30
2018-08-25T04:43:51.639Z,13.30
2018-08-25T04:46:20.219Z,13.30
2018-08-25T04:48:48.761Z,13.40
2018-08-25T04:51:17.361Z,13.40
2018-08-25T04:53:46.353Z,13.40
2018-08-25T04:56:14.913Z,13.40
2018-08-25T04:58:43.522Z,13.40
2018-08-25T05:01:12.083Z,13.40
2018-08-25T05:03:40.637Z,13.40
2018-08-25T05:06:09.181Z,13.40
2018-08-25T05:08:37.756Z,13.40
2018-08-25T05:11:06.312Z,13.40
2018-08-25T05:13:34.838Z,13.40
2018-08-25T05:16:03.367Z,13.40
2018-08-25T05:18:31.905Z,13.50
2018-08-25T05:21:00.443Z,13.50
2018-08-25T05:23:28.986Z,13.50
2018-08-25T05:25:57.537Z,13.50
2018-08-25T05:28:26.069Z,13.60
2018-08-25T05:30:54.597Z,13.60
2018-08-25T05:33:23.156Z,13.70
2018-08-25T05:35:51.715Z,13.70
2018-08-25T05:38:20.280Z,13.70
2018-08-25T05:40:48.875Z,13.80
2018-08-25T05:43:17.424Z,13.80
2018-08-25T05:45:45.972Z,13.80
2018-08-25T05:48:14.523Z,13.80
2018-08-25T05:50:43.065Z,13.90
2018-08-25T05:53:11.600Z,14.00
2018-08-25T05:55:40.141Z,14.00
2018-08-25T05:58:08.667Z,14.10
2018-08-25T06:00:37.309Z,14.20
2018-08-25T06:03:05.929Z,14.30
2018-08-25T06:05:34.457Z,14.40
2018-08-25T06:08:03.080Z,14.50
2018-08-25T06:10:31.769Z,14.60
2018-08-25T06:13:00.344Z,14.60
2018-08-25T06:15:28.887Z,14.70
2018-08-25T06:17:57.470Z,14.80
2018-08-25T06:20:26.410Z,14.90
2018-08-25T06:22:55.018Z,15.10
2018-08-25T06:25:23.572Z,15.20
2018-08-25T06:27:52.699Z,15.20
2018-08-25T06:30:21.267Z,15.20
2018-08-25T06:32:49.859Z,15.30
2018-08-25T06:35:18.545Z,15.40
2018-08-25T06:37:47.102Z,15.60
2018-08-25T06:40:15.704Z,15.70
2018-08-25T06:42:44.263Z,15.90
2018-08-25T06:45:12.821Z,16.10
2018-08-25T06:47:41.381Z,16.10
2018-08-25T06:50:09.920Z,16.10
2018-08-25T06:52:38.474Z,16.00
2018-08-25T06:55:07.111Z,16.10
2018-08-25T06:57:35.728Z,16.00
2018-08-25T07:00:04.648Z,16.00
2018-08-25T07:02:33.444Z,16.00
2018-08-25T07:05:02.030Z,16.00
2018-08-25T07:07:31.641Z,16.00
2018-08-25T07:10:00.156Z,15.90
2018-08-25T07:12:28.728Z,15.90
2018-08-25T07:14:58.213Z,15.90
2018-08-25T07:17:26.861Z,15.80
2018-08-25T07:19:55.377Z,15.80
2018-08-25T07:22:24.065Z,15.80
2018-08-25T07:24:52.660Z,15.80
2018-08-25T07:27:21.219Z,15.80
2018-08-25T07:29:49.843Z,15.90
2018-08-25T07:32:18.455Z,15.90
2018-08-25T07:34:47.640Z,16.00
2018-08-25T07:37:16.195Z,16.00
2018-08-25T07:39:44.759Z,16.10
2018-08-25T07:42:13.357Z,16.20
2018-08-25T07:44:41.976Z,16.30
2018-08-25T07:47:10.538Z,16.40
2018-08-25T07:49:39.182Z,16.50
2018-08-25T07:52:07.675Z,16.60
2018-08-25T07:54:36.217Z,16.80
2018-08-25T07:57:04.901Z,17.00
2018-08-25T07:59:33.446Z,17.20
2018-08-25T08:02:02.037Z,17.40
2018-08-25T08:04:30.663Z,17.60
2018-08-25T08:06:59.400Z,17.70
2018-08-25T08:09:27.999Z,17.80
2018-08-25T08:11:56.817Z,17.70
2018-08-25T08:14:26.443Z,17.60
2018-08-25T08:17:01.661Z,17.50
2018-08-25T08:19:30.323Z,17.40
2018-08-25T08:21:58.872Z,17.30
2018-08-25T08:24:28.499Z,17.20
2018-08-25T08:26:57.191Z,17.10
2018-08-25T08:29:25.747Z,17.10
2018-08-25T08:31:54.407Z,17.10
2018-08-25T08:34:22.969Z,17.10
2018-08-25T08:36:52.487Z,17.30
2018-08-25T08:39:21.097Z,17.40
2018-08-25T08:41:49.777Z,17.40
2018-08-25T08:44:18.359Z,17.40
2018-08-25T08:46:46.907Z,17.40
2018-08-25T08:49:15.582Z,17.40
2018-08-25T08:51:44.201Z,17.50
2018-08-25T08:54:12.874Z,17.50
2018-08-25T08:56:41.437Z,17.60
2018-08-25T08:59:09.979Z,17.70
2018-08-25T09:01:38.565Z,17.80
2018-08-25T09:04:07.212Z,18.00
2018-08-25T09:06:35.878Z,18.20
2018-08-25T09:09:07.047Z,18.30
2018-08-25T09:11:35.702Z,18.30
2018-08-25T09:14:04.248Z,18.10
2018-08-25T09:16:33.547Z,18.10
2018-08-25T09:19:02.135Z,18.10
2018-08-25T09:21:30.689Z,18.00
2018-08-25T09:23:59.527Z,17.90
2018-08-25T09:26:28.169Z,17.90
2018-08-25T09:28:57.018Z,17.80
2018-08-25T09:31:25.554Z,17.80
2018-08-25T09:33:54.178Z,17.70
2018-08-25T09:36:22.779Z,17.70
2018-08-25T09:38:51.870Z,17.70
2018-08-25T09:41:20.742Z,17.60
2018-08-25T09:43:49.441Z,17.60
2018-08-25T09:46:18.023Z,17.70
2018-08-25T09:48:46.607Z,17.70
2018-08-25T09:51:15.152Z,17.70
2018-08-25T09:53:43.691Z,17.70
2018-08-25T09:56:12.283Z,17.70
2018-08-25T09:58:40.841Z,17.60
2018-08-25T10:01:14.602Z,17.50
2018-08-25T10:03:43.126Z,17.40
2018-08-25T10:06:11.706Z,17.20
2018-08-25T10:08:40.256Z,17.00
2018-08-25T10:11:08.800Z,16.90
2018-08-25T10:13:37.327Z,16.80
2018-08-25T10:16:05.922Z,16.60
2018-08-25T10:18:34.487Z,16.50
2018-08-25T10:21:03.043Z,16.40
2018-08-25T10:23:31.736Z,16.30
2018-08-25T10:26:00.290Z,16.20
2018-08-25T10:28:28.854Z,16.20
2018-08-25T10:30:57.416Z,16.20
2018-08-25T10:33:25.980Z,16.20
2018-08-25T10:35:54.535Z,16.20
2018-08-25T10:38:23.097Z,16.20
2018-08-25T10:40:51.746Z,16.20
2018-08-25T10:43:20.316Z,16.30
2018-08-25T10:45:48.919Z,16.40
2018-08-25T10:48:17.467Z,16.50
2018-08-25T10:50:46.004Z,16.70
2018-08-25T10:53:14.661Z,16.70
2018-08-25T10:55:43.219Z,16.80
2018-08-25T10:58:11.764Z,16.80
2018-08-25T11:00:40.565Z,17.00
2018-08-25T11:03:08.938Z,17.00
2018-08-25T11:05:37.500Z,17.00
2018-08-25T11:08:06.071Z,17.10
2018-08-25T11:10:34.657Z,17.20
2018-08-25T11:13:03.200Z,17.20
2018-08-25T11:15:31.745Z,17.10
2018-08-25T11:18:00.295Z,17.20
2018-08-25T11:20:28.813Z,17.40
2018-08-25T11:22:57.346Z,17.60
2018-08-25T11:25:25.897Z,17.60
2018-08-25T11:27:54.437Z,17.70
2018-08-25T11:30:23.034Z,17.90
2018-08-25T11:32:51.633Z,18.10
2018-08-25T11:35:20.181Z,18.50
2018-08-25T11:37:48.766Z,18.70
2018-08-25T11:40:17.365Z,18.70
2018-08-25T11:42:45.994Z,18.60
2018-08-25T11:45:14.539Z,18.50
2018-08-25T11:47:43.142Z,18.40
2018-08-25T11:50:11.695Z,18.40
2018-08-25T11:52:40.299Z,18.40
2018-08-25T11:55:08.901Z,18.50
2018-08-25T11:57:37.500Z,18.50
2018-08-25T12:00:07.521Z,18.50
2018-08-25T12:02:36.103Z,18.50
2018-08-25T12:05:04.809Z,18.60
2018-08-25T12:07:33.320Z,18.60
2018-08-25T12:10:01.907Z,18.60
2018-08-25T12:12:30.463Z,18.70
2018-08-25T12:14:59.047Z,18.80
2018-08-25T12:17:27.622Z,19.00
2018-08-25T12:19:56.205Z,19.10
2018-08-25T12:22:24.742Z,19.00
2018-08-25T12:24:53.439Z,19.00
2018-08-25T12:27:22.016Z,19.20
2018-08-25T12:29:50.606Z,19.20
2018-08-25T12:32:19.163Z,19.30
2018-08-25T12:34:47.756Z,19.30
2018-08-25T12:37:16.322Z,19.30
2018-08-25T12:39:45.519Z,19.30
2018-08-25T12:42:14.201Z,19.30
2018-08-25T12:44:42.769Z,19.30
2018-08-25T12:47:11.369Z,19.20
2018-08-25T12:49:39.961Z,19.20
2018-08-25T12:52:08.732Z,19.30
2018-08-25T12:54:37.275Z,19.20
2018-08-25T12:57:05.817Z,19.20
2018-08-25T12:59:34.445Z,19.20
2018-08-25T13:02:02.995Z,19.10
2018-08-25T13:04:31.531Z,18.90
2018-08-25T13:07:00.088Z,18.80
2018-08-25T13:09:28.665Z,18.70
2018-08-25T13:11:57.288Z,18.60
2018-08-25T13:14:25.829Z,18.50
2018-08-25T13:16:54.356Z,18.40
2018-08-25T13:19:22.934Z,18.40
2018-08-25T13:21:51.640Z,18.30
2018-08-25T13:24:20.182Z,18.30
2018-08-25T13:26:48.831Z,18.30
2018-08-25T13:29:17.383Z,18.20
2018-08-25T13:31:46.007Z,18.20
2018-08-25T13:34:14.552Z,18.30
2018-08-25T13:36:43.133Z,18.30
2018-08-25T13:39:12.536Z,18.40
2018-08-25T13:41:41.697Z,18.50
2018-08-25T13:44:11.888Z,18.60
2018-08-25T13:46:40.697Z,18.70
2018-08-25T13:49:09.290Z,18.80
2018-08-25T13:51:38.139Z,18.80
2018-08-25T13:54:07.103Z,18.90
2018-08-25T13:56:35.679Z,18.90
2018-08-25T13:59:04.209Z,18.90
2018-08-25T14:01:32.807Z,18.90
2018-08-25T14:04:01.393Z,18.80
2018-08-25T14:06:29.987Z,18.80
2018-08-25T14:08:58.920Z,18.60
2018-08-25T14:11:27.507Z,18.60
2018-08-25T14:13:56.061Z,18.50
2018-08-25T14:16:24.968Z,18.30
2018-08-25T14:18:53.499Z,18.00
2018-08-25T14:21:22.076Z,17.70
2018-08-25T14:23:50.712Z,17.50
2018-08-25T14:26:19.283Z,17.30
2018-08-25T14:28:47.911Z,17.10
2018-08-25T14:31:16.431Z,17.00
2018-08-25T14:33:45.011Z,17.00
2018-08-25T14:36:13.627Z,16.90
2018-08-25T14:38:42.130Z,16.80
2018-08-25T14:41:10.679Z,16.80
2018-08-25T14:43:39.253Z,16.90
2018-08-25T14:46:07.871Z,17.00
2018-08-25T14:48:36.431Z,17.00
2018-08-25T14:51:05.045Z,17.10
2018-08-25T14:53:33.589Z,17.20
2018-08-25T14:56:02.169Z,17.30
2018-08-25T14:58:30.748Z,17.40
2018-08-25T15:00:59.336Z,17.50
2018-08-25T15:03:27.888Z,17.60
2018-08-25T15:05:56.487Z,17.60
2018-08-25T15:08:25.037Z,17.60
2018-08-25T15:10:53.577Z,17.60
2018-08-25T15:13:22.242Z,17.60
2018-08-25T15:15:50.759Z,17.60
2018-08-25T15:18:19.308Z,17.60
2018-08-25T15:20:47.896Z,17.50
2018-08-25T15:23:16.500Z,17.50
2018-08-25T15:25:45.037Z,17.40
2018-08-25T15:28:13.572Z,17.40
2018-08-25T15:30:42.135Z,17.40
2018-08-25T15:33:10.735Z,17.40
2018-08-25T15:35:39.276Z,17.50
2018-08-25T15:38:07.813Z,17.50
2018-08-25T15:40:36.378Z,17.50
2018-08-25T15:43:04.993Z,17.50
2018-08-25T15:45:33.583Z,17.50
2018-08-25T15:48:02.183Z,17.60
2018-08-25T15:50:30.766Z,17.60
2018-08-25T15:52:59.321Z,17.60
2018-08-25T15:55:27.956Z,17.60
2018-08-25T15:57:57.772Z,17.60
2018-08-25T16:00:26.348Z,17.60
2018-08-25T16:02:55.453Z,17.60
2018-08-25T16:05:24.021Z,17.50
2018-08-25T16:07:52.885Z,17.50
2018-08-25T16:10:21.835Z,17.60
2018-08-25T16:12:50.805Z,17.50
2018-08-25T16:15:19.435Z,17.40
2018-08-25T16:17:47.995Z,17.40
2018-08-25T16:20:17.442Z,17.40
2018-08-25T16:22:46.029Z,17.40
2018-08-25T16:25:14.652Z,17.40
2018-08-25T16:27:43.210Z,17.40
2018-08-25T16:30:11.749Z,17.40
2018-08-25T16:32:40.329Z,17.30
2018-08-25T16:35:08.880Z,17.30
2018-08-25T16:37:37.452Z,17.20
2018-08-25T16:40:06.032Z,17.20
2018-08-25T16:42:34.616Z,17.10
2018-08-25T16:45:03.152Z,17.10
2018-08-25T16:47:31.714Z,17.10
2018-08-25T16:50:00.267Z,17.00
2018-08-25T16:52:28.935Z,17.10
2018-08-25T16:54:58.451Z,17.00
2018-08-25T16:57:27.018Z,17.00
2018-08-25T16:59:55.528Z,17.00
2018-08-25T17:02:24.075Z,16.90
2018-08-25T17:04:52.663Z,16.80
2018-08-25T17:07:21.311Z,16.80
2018-08-25T17:09:49.858Z,16.80
2018-08-25T17:12:18.404Z,16.70
2018-08-25T17:14:48.931Z,16.70
2018-08-25T17:17:17.448Z,16.60
2018-08-25T17:19:46.176Z,16.50
2018-08-25T17:22:14.713Z,16.50
2018-08-25T17:24:43.321Z,16.40
2018-08-25T17:27:11.846Z,16.40
2018-08-25T17:29:40.424Z,16.40
2018-08-25T17:32:08.953Z,16.30
2018-08-25T17:34:37.471Z,16.30
2018-08-25T17:37:07.701Z,16.30
2018-08-25T17:39:36.276Z,16.20
2018-08-25T17:42:05.050Z,16.20
2018-08-25T17:44:33.668Z,16.20
2018-08-25T17:47:02.247Z,16.20
2018-08-25T17:49:30.823Z,16.10
2018-08-25T17:51:59.370Z,16.00
2018-08-25T17:54:27.940Z,16.00
2018-08-25T17:56:56.641Z,15.90
2018-08-25T17:59:25.153Z,15.90
2018-08-25T18:01:53.801Z,15.80
2018-08-25T18:04:22.340Z,15.70
2018-08-25T18:06:50.932Z,15.80
2018-08-25T18:09:19.463Z,15.70
2018-08-25T18:11:48.069Z,15.70
2018-08-25T18:14:16.636Z,15.70
2018-08-25T18:16:45.206Z,15.60
2018-08-25T18:19:13.792Z,15.50
2018-08-25T18:21:42.327Z,15.50
2018-08-25T18:24:10.916Z,15.50
2018-08-25T18:26:39.476Z,15.40
2018-08-25T18:29:08.043Z,15.40
2018-08-25T18:31:36.668Z,15.40
2018-08-25T18:34:05.283Z,15.30
2018-08-25T18:36:33.867Z,15.30
2018-08-25T18:39:02.660Z,15.30
2018-08-25T18:41:31.238Z,15.20
2018-08-25T18:43:59.867Z,15.20
2018-08-25T18:46:28.459Z,15.20
2018-08-25T18:48:57.025Z,15.20
2018-08-25T18:51:25.633Z,15.20
2018-08-25T18:53:54.205Z,15.20
2018-08-25T18:56:22.854Z,15.10
2018-08-25T18:58:51.419Z,15.10
2018-08-25T19:01:20.032Z,15.10
2018-08-25T19:03:48.720Z,15.00
2018-08-25T19:06:17.312Z,15.00
2018-08-25T19:08:46.037Z,15.00
2018-08-25T19:11:14.625Z,15.00
2018-08-25T19:13:43.170Z,15.00
2018-08-25T19:16:11.760Z,14.90
2018-08-25T19:18:40.334Z,14.90
2018-08-25T19:21:08.930Z,14.80
2018-08-25T19:23:37.535Z,14.80
2018-08-25T19:26:06.188Z,14.80
2018-08-25T19:28:34.777Z,14.80
2018-08-25T19:31:03.397Z,14.80
2018-08-25T19:33:31.979Z,14.80
2018-08-25T19:36:00.599Z,14.80
2018-08-25T19:38:29.177Z,14.80
2018-08-25T19:40:58.038Z,14.80
2018-08-25T19:43:26.630Z,14.70
2018-08-25T19:45:55.340Z,14.70
2018-08-25T19:48:24.025Z,14.60
2018-08-25T19:50:52.590Z,14.60
2018-08-25T19:53:21.148Z,14.60
2018-08-25T19:55:49.867Z,14.50
2018-08-25T19:58:18.401Z,14.50
2018-08-25T20:00:47.041Z,14.50
2018-08-25T20:03:15.632Z,14.40
2018-08-25T20:05:44.329Z,14.50
2018-08-25T20:08:12.772Z,14.40
2018-08-25T20:10:41.328Z,14.40
2018-08-25T20:13:09.949Z,14.40
2018-08-25T20:15:38.582Z,14.40
2018-08-25T20:18:07.180Z,14.40
2018-08-25T20:20:35.823Z,14.40
2018-08-25T20:23:04.381Z,14.30
2018-08-25T20:25:32.948Z,14.30
2018-08-25T20:28:01.455Z,14.30
2018-08-25T20:30:30.096Z,14.30
2018-08-25T20:32:58.671Z,14.20
2018-08-25T20:35:27.199Z,14.20
2018-08-25T20:37:55.717Z,14.20
2018-08-25T20:40:24.280Z,14.20
2018-08-25T20:42:52.875Z,14.20
2018-08-25T20:45:21.444Z,14.20
2018-08-25T20:47:50.019Z,14.20
2018-08-25T20:50:18.571Z,14.20
2018-08-25T20:52:47.122Z,14.10
2018-08-25T20:55:15.666Z,14.10
2018-08-25T20:57:44.203Z,14.10
2018-08-25T21:00:12.808Z,14.10
2018-08-25T21:02:41.333Z,14.10
2018-08-25T21:05:09.951Z,14.10
2018-08-25T21:07:38.498Z,14.10
2018-08-25T21:10:08.300Z,14.00
2018-08-25T21:12:36.879Z,14.00
2018-08-25T21:15:05.590Z,14.00
2018-08-25T21:17:34.212Z,14.00
2018-08-25T21:20:02.771Z,14.00
2018-08-25T21:22:31.365Z,13.90
2018-08-25T21:24:59.931Z,14.00
2018-08-25T21:27:28.476Z,14.00
2018-08-25T21:29:57.022Z,14.00
2018-08-25T21:32:25.566Z,14.00
2018-08-25T21:34:54.230Z,13.90
2018-08-25T21:37:22.791Z,13.90
2018-08-25T21:39:51.311Z,13.90
2018-08-25T21:42:20.418Z,13.80
2018-08-25T21:44:49.001Z,13.80
2018-08-25T21:47:17.513Z,13.80
2018-08-25T21:49:46.072Z,13.80
2018-08-25T21:52:14.627Z,13.80
2018-08-25T21:54:43.161Z,13.80
2018-08-25T21:57:11.721Z,13.70
2018-08-25T21:59:40.254Z,13.70
2018-08-25T22:02:08.865Z,13.70
2018-08-25T22:04:37.407Z,13.70
2018-08-25T22:07:05.979Z,13.70
2018-08-25T22:09:34.492Z,13.70
2018-08-25T22:12:03.119Z,13.60
2018-08-25T22:14:31.647Z,13.60
2018-08-25T22:17:00.215Z,13.60
2018-08-25T22:19:28.741Z,13.50
2018-08-25T22:21:57.278Z,13.50
2018-08-25T22:24:25.850Z,13.50
2018-08-25T22:26:54.389Z,13.50
2018-08-25T22:29:22.923Z,13.50
2018-08-25T22:31:51.466Z,13.40
2018-08-25T22:34:19.984Z,13.40
2018-08-25T22:36:48.532Z,13.30
2018-08-25T22:39:17.069Z,13.30
2018-08-25T22:41:45.704Z,13.30
2018-08-25T22:44:14.260Z,13.30
2018-08-25T22:46:42.807Z,13.30
2018-08-25T22:49:13.160Z,13.30
2018-08-25T22:51:41.713Z,13.30
2018-08-25T22:54:10.295Z,13.30
2018-08-25T22:56:38.839Z,13.30
2018-08-25T22:59:07.415Z,13.20
2018-08-25T23:01:35.999Z,13.20
2018-08-25T23:04:04.564Z,13.20
2018-08-25T23:06:33.146Z,13.20
2018-08-25T23:09:01.730Z,13.20
2018-08-25T23:11:30.243Z,13.20
2018-08-25T23:13:58.861Z,13.20
2018-08-25T23:16:27.409Z,13.10
2018-08-25T23:18:55.942Z,13.10
2018-08-25T23:21:24.489Z,13.00
2018-08-25T23:23:53.023Z,13.00
2018-08-25T23:26:21.568Z,13.00
2018-08-25T23:28:50.090Z,12.90
2018-08-25T23:31:18.631Z,12.90
2018-08-25T23:33:47.147Z,12.90
2018-08-25T23:36:15.684Z,12.90
2018-08-25T23:38:44.199Z,12.80
2018-08-25T23:41:12.731Z,12.80
2018-08-25T23:43:41.317Z,12.80
2018-08-25T23:46:09.842Z,12.70
2018-08-25T23:48:38.395Z,12.70
2018-08-25T23:51:06.946Z,12.60
2018-08-25T23:53:35.462Z,12.60
2018-08-25T23:56:04.164Z,12.60
2018-08-25T23:58:32.721Z,12.60
